Time;durP1;ratioP1;P1;durP2;ratioP2;P2;SDS_P1;SDS_P2;PMS_P1;PMS_P2;Temp;Humidity;BMP_temperature;BMP_pressure;BME280_temperature;BME280_humidity;BME280_pressure;Samples;Min_cycle;Max_cycle;Signal;HPM_P1;HPM_P2
2023/09/14 00:00:22;;;;;;;10.43;7.78;;;9.60;99.90;;;;;;6100067;23;20014;-78
2023/09/14 00:02:48;;;;;;;19.50;10.88;;;9.50;99.90;;;;;;6125280;23;20017;-78
2023/09/14 00:05:14;;;;;;;25.30;14.25;;;9.50;99.90;;;;;;6101235;23;20044;-79
2023/09/14 00:07:40;;;;;;;12.55;8.43;;;9.50;99.90;;;;;;6101259;23;20017;-79
2023/09/14 00:10:06;;;;;;;17.90;10.90;;;9.50;99.90;;;;;;6124927;23;20010;-79
2023/09/14 00:12:32;;;;;;;15.18;10.18;;;9.50;99.90;;;;;;6125353;23;20014;-79
2023/09/14 00:14:57;;;;;;;16.92;11.40;;;9.50;99.90;;;;;;6100526;23;20065;-79
2023/09/14 00:17:23;;;;;;;34.53;14.60;;;9.50;99.90;;;;;;6101810;23;20010;-79
2023/09/14 00:19:48;;;;;;;11.32;7.70;;;9.40;99.90;;;;;;6104924;23;20041;-79
2023/09/14 00:22:14;;;;;;;13.15;9.07;;;9.40;99.90;;;;;;6105098;23;20022;-79
2023/09/14 00:24:39;;;;;;;13.63;8.63;;;9.40;99.90;;;;;;6128815;23;20017;-79
2023/09/14 00:27:05;;;;;;;9.82;7.43;;;9.40;99.90;;;;;;6105906;23;20014;-79
2023/09/14 00:29:30;;;;;;;12.43;8.80;;;9.40;99.90;;;;;;6128399;23;20080;-79
2023/09/14 00:31:56;;;;;;;22.52;12.20;;;9.40;99.90;;;;;;6127293;23;20014;-80
2023/09/14 00:34:22;;;;;;;16.48;8.52;;;9.40;99.90;;;;;;6104771;23;20029;-80
2023/09/14 00:36:47;;;;;;;19.55;10.45;;;9.40;99.90;;;;;;6129455;23;20021;-80
2023/09/14 00:39:13;;;;;;;15.27;9.68;;;9.40;99.90;;;;;;6129118;23;20014;-80
2023/09/14 00:41:38;;;;;;;22.35;8.98;;;9.30;99.90;;;;;;6128103;23;20025;-80
2023/09/14 00:44:04;;;;;;;13.93;7.72;;;9.30;99.90;;;;;;6105165;23;20434;-80
2023/09/14 00:46:30;;;;;;;13.13;9.20;;;9.30;99.90;;;;;;6098835;23;20010;-80
2023/09/14 00:48:57;;;;;;;14.45;9.02;;;9.30;99.90;;;;;;6127732;23;20025;-80
2023/09/14 00:51:24;;;;;;;13.65;11.15;;;9.30;99.90;;;;;;6125288;23;20093;-79
2023/09/14 00:53:50;;;;;;;20.00;10.25;;;9.30;99.90;;;;;;6126085;23;20013;-80
2023/09/14 00:56:17;;;;;;;14.98;8.98;;;9.20;99.90;;;;;;6129869;23;20028;-80
2023/09/14 00:58:44;;;;;;;20.23;10.55;;;9.20;99.90;;;;;;6130456;23;20347;-80
2023/09/14 01:01:10;;;;;;;9.93;6.63;;;9.20;99.90;;;;;;6129281;23;20319;-80
2023/09/14 01:03:36;;;;;;;12.80;9.05;;;9.20;99.90;;;;;;6129361;23;20459;-80
2023/09/14 01:06:02;;;;;;;14.45;8.30;;;9.10;99.90;;;;;;6100766;23;20049;-80
2023/09/14 01:08:28;;;;;;;15.55;9.68;;;9.10;99.90;;;;;;6125285;23;20033;-80
2023/09/14 01:10:54;;;;;;;14.00;8.75;;;9.10;99.90;;;;;;6099376;23;20060;-80
2023/09/14 01:13:58;;;;;;;8.18;6.25;;;9.10;99.90;;;;;;6124350;23;20053;-80
2023/09/14 01:16:36;;;;;;;11.15;6.90;;;9.00;99.90;;;;;;6124623;23;20025;-80
2023/09/14 01:19:24;;;;;;;17.00;9.57;;;9.00;99.90;;;;;;6125454;23;20505;-80
2023/09/14 01:22:11;;;;;;;11.07;6.63;;;9.00;99.90;;;;;;6125018;23;20366;-81
2023/09/14 01:24:54;;;;;;;15.18;8.93;;;9.00;99.90;;;;;;6124906;23;20068;-81
2023/09/14 01:27:20;;;;;;;;;;;9.00;99.90;;;;;;6101795;23;20080;-81
2023/09/14 01:29:46;;;;;;;14.63;8.52;;;8.90;99.90;;;;;;6101063;23;19913;-81
2023/09/14 01:32:11;;;;;;;14.88;10.10;;;8.90;99.90;;;;;;6124752;23;20490;-80
2023/09/14 01:34:37;;;;;;;9.35;7.07;;;8.90;99.90;;;;;;6124953;23;20041;-80
2023/09/14 01:37:04;;;;;;;5.70;5.20;;;8.80;99.90;;;;;;6101173;23;20006;-80
2023/09/14 01:39:31;;;;;;;5.45;4.47;;;8.80;99.90;;;;;;6125278;23;20052;-80
2023/09/14 01:41:57;;;;;;;5.95;5.03;;;8.90;99.90;;;;;;6101398;23;20017;-80
2023/09/14 01:44:27;;;;;;;6.28;4.30;;;8.80;99.90;;;;;;6101080;23;20025;-80
2023/09/14 01:46:53;;;;;;;8.15;5.50;;;8.80;99.90;;;;;;6100611;23;20126;-80
2023/09/14 01:49:19;;;;;;;11.27;7.32;;;8.80;99.90;;;;;;6125395;23;20020;-80
2023/09/14 01:51:45;;;;;;;15.93;7.93;;;8.80;99.90;;;;;;6100713;23;20407;-80
2023/09/14 01:54:10;;;;;;;9.18;6.93;;;8.80;99.90;;;;;;6126398;23;20021;-80
2023/09/14 01:56:36;;;;;;;8.15;5.72;;;8.70;99.90;;;;;;6125621;23;20010;-80
2023/09/14 01:59:02;;;;;;;10.32;7.25;;;8.70;99.90;;;;;;6101685;23;20014;-80
2023/09/14 02:01:28;;;;;;;11.48;6.45;;;8.60;99.90;;;;;;6126900;23;20006;-80
2023/09/14 02:03:54;;;;;;;9.30;5.15;;;8.60;99.90;;;;;;6104261;23;20057;-80
2023/09/14 02:06:20;;;;;;;10.50;5.32;;;8.50;99.90;;;;;;6104033;23;20061;-80
2023/09/14 02:08:46;;;;;;;6.93;4.95;;;8.60;99.90;;;;;;6128636;23;20045;-80
2023/09/14 02:11:13;;;;;;;9.07;3.97;;;8.50;99.90;;;;;;6104024;23;20432;-80
2023/09/14 02:13:39;;;;;;;10.65;6.28;;;8.50;99.90;;;;;;6104320;23;20480;-80
2023/09/14 02:16:06;;;;;;;10.20;5.97;;;8.50;99.90;;;;;;6103448;23;20294;-80
2023/09/14 02:18:31;;;;;;;8.35;5.10;;;8.50;99.90;;;;;;6104009;23;20518;-80
2023/09/14 02:20:57;;;;;;;4.75;3.92;;;8.40;99.90;;;;;;6104742;23;20013;-80
2023/09/14 02:23:22;;;;;;;11.05;6.40;;;8.40;99.90;;;;;;6104946;23;20029;-80
2023/09/14 02:25:49;;;;;;;10.75;6.45;;;8.40;99.90;;;;;;6104240;23;20093;-80
2023/09/14 02:28:15;;;;;;;7.78;5.07;;;8.40;99.90;;;;;;6104830;23;20033;-80
2023/09/14 02:30:41;;;;;;;4.72;3.58;;;8.40;99.90;;;;;;6105171;23;20514;-80
2023/09/14 02:33:07;;;;;;;5.10;3.55;;;8.30;99.90;;;;;;6106274;23;20014;-80
2023/09/14 02:35:38;;;;;;;3.95;3.60;;;8.30;99.90;;;;;;6129647;23;20021;-80
2023/09/14 02:38:04;;;;;;;3.38;3.08;;;8.30;99.90;;;;;;6104955;23;20013;-80
2023/09/14 02:40:30;;;;;;;6.72;4.55;;;8.30;99.90;;;;;;6129952;23;20064;-80
2023/09/14 02:42:56;;;;;;;6.32;4.40;;;8.30;99.90;;;;;;6129927;23;20010;-80
2023/09/14 02:45:21;;;;;;;5.18;4.68;;;8.30;99.90;;;;;;6129539;23;20018;-80
2023/09/14 02:47:47;;;;;;;6.72;4.85;;;8.30;99.90;;;;;;6105631;23;20014;-80
2023/09/14 02:50:12;;;;;;;5.82;4.82;;;8.30;99.90;;;;;;6105761;23;20351;-80
2023/09/14 02:52:38;;;;;;;13.15;6.72;;;8.30;99.90;;;;;;6106333;23;20543;-80
2023/09/14 02:55:04;;;;;;;6.00;4.07;;;8.20;99.90;;;;;;6105886;23;20006;-80
2023/09/14 02:57:29;;;;;;;13.55;5.78;;;8.20;99.90;;;;;;6131073;23;20014;-80
2023/09/14 02:59:55;;;;;;;7.88;5.57;;;8.20;99.90;;;;;;6131216;23;20006;-80
2023/09/14 03:02:24;;;;;;;9.82;6.85;;;8.10;99.90;;;;;;6131333;23;20013;-80
2023/09/14 03:04:50;;;;;;;8.10;5.95;;;8.10;99.90;;;;;;6107005;23;20014;-80
2023/09/14 03:07:16;;;;;;;7.60;6.63;;;8.10;99.90;;;;;;6107539;23;20025;-80
2023/09/14 03:09:42;;;;;;;6.50;5.90;;;8.10;99.90;;;;;;6106707;23;20118;-80
2023/09/14 03:12:08;;;;;;;8.48;7.30;;;8.10;99.90;;;;;;6132666;23;20018;-80
2023/09/14 03:14:34;;;;;;;8.95;6.80;;;8.10;99.90;;;;;;6133018;23;20370;-80
2023/09/14 03:16:59;;;;;;;8.05;5.75;;;8.10;99.90;;;;;;6131006;23;20010;-80
2023/09/14 03:19:25;;;;;;;7.30;6.20;;;8.10;99.90;;;;;;6125492;23;20061;-80
2023/09/14 03:21:51;;;;;;;9.55;6.20;;;8.10;99.90;;;;;;6100999;23;20018;-80
2023/09/14 03:24:17;;;;;;;7.47;5.63;;;8.00;99.90;;;;;;6125400;23;20068;-80
2023/09/14 03:26:42;;;;;;;11.90;7.40;;;8.00;99.90;;;;;;6126217;23;20022;-80
2023/09/14 03:29:08;;;;;;;10.35;6.63;;;8.00;99.90;;;;;;6101710;23;20014;-80
2023/09/14 03:31:35;;;;;;;8.18;6.63;;;8.00;99.90;;;;;;6126081;23;20148;-80
2023/09/14 03:34:00;;;;;;;6.07;5.43;;;8.00;99.90;;;;;;6101962;23;20021;-80
2023/09/14 03:36:26;;;;;;;8.75;5.30;;;7.90;99.90;;;;;;6101370;23;20006;-81
2023/09/14 03:38:52;;;;;;;12.45;7.57;;;7.90;99.90;;;;;;6126335;23;20013;-80
2023/09/14 03:41:18;;;;;;;13.40;8.32;;;7.90;99.90;;;;;;6126647;23;20010;-80
2023/09/14 03:43:43;;;;;;;9.68;7.70;;;7.90;99.90;;;;;;6126867;23;20069;-81
2023/09/14 03:46:12;;;;;;;9.13;6.85;;;7.90;99.90;;;;;;6102140;23;20018;-80
2023/09/14 03:48:37;;;;;;;14.95;9.70;;;7.90;99.90;;;;;;6101864;23;20017;-81
2023/09/14 03:51:03;;;;;;;17.70;10.35;;;7.90;99.90;;;;;;6101382;23;20018;-80
2023/09/14 03:53:29;;;;;;;9.82;8.48;;;7.80;99.90;;;;;;6127318;23;20466;-81
2023/09/14 03:55:55;;;;;;;16.00;9.98;;;7.80;99.90;;;;;;6103180;23;20061;-80
2023/09/14 03:58:22;;;;;;;14.55;10.15;;;7.80;99.90;;;;;;6102376;23;20068;-81
2023/09/14 04:00:48;;;;;;;17.42;10.93;;;7.80;99.90;;;;;;6126712;23;20017;-81
2023/09/14 04:03:16;;;;;;;9.00;7.07;;;7.80;99.90;;;;;;6102983;23;20014;-81
2023/09/14 04:05:43;;;;;;;9.38;7.50;;;7.80;99.90;;;;;;6103251;23;20105;-81
2023/09/14 04:08:08;;;;;;;7.40;6.63;;;7.80;99.90;;;;;;6103429;23;20354;-81
2023/09/14 04:10:37;;;;;;;9.95;6.38;;;7.80;99.90;;;;;;6128102;23;20097;-81
2023/09/14 04:13:29;;;;;;;8.45;7.10;;;7.80;99.90;;;;;;6103069;23;20403;-81
2023/09/14 04:15:56;;;;;;;7.88;6.68;;;7.80;99.90;;;;;;6127488;23;20006;-81
2023/09/14 04:18:25;;;;;;;13.70;7.95;;;7.70;99.90;;;;;;6103680;23;20061;-81
2023/09/14 04:20:51;;;;;;;10.70;7.28;;;7.70;99.90;;;;;;6128009;23;20014;-81
2023/09/14 04:23:17;;;;;;;7.88;6.68;;;7.70;99.90;;;;;;6104849;23;20363;-83
2023/09/14 04:25:46;;;;;;;10.68;7.55;;;7.70;99.90;;;;;;6101213;23;20021;-83
2023/09/14 04:28:13;;;;;;;9.88;8.15;;;7.70;99.90;;;;;;6127562;23;20018;-83
2023/09/14 04:30:46;;;;;;;7.88;5.68;;;7.70;99.90;;;;;;6103520;23;20010;-82
2023/09/14 04:33:13;;;;;;;6.13;5.50;;;7.70;99.90;;;;;;6108512;23;20010;-83
2023/09/14 04:35:40;;;;;;;10.13;8.57;;;7.70;99.90;;;;;;6128073;23;20013;-83
2023/09/14 04:38:07;;;;;;;8.27;6.50;;;7.60;99.90;;;;;;6128455;23;20064;-83
2023/09/14 04:40:43;;;;;;;8.40;6.68;;;7.70;99.90;;;;;;6153087;23;20349;-83
2023/09/14 04:43:09;;;;;;;9.40;7.53;;;7.70;99.90;;;;;;6123408;23;20442;-83
2023/09/14 04:45:35;;;;;;;6.95;6.25;;;7.70;99.90;;;;;;6098811;23;20014;-83
2023/09/14 04:48:01;;;;;;;12.32;8.52;;;7.70;99.90;;;;;;6099192;23;20378;-83
2023/09/14 04:50:27;;;;;;;12.45;9.18;;;7.70;99.90;;;;;;6122889;23;20014;-83
2023/09/14 04:52:53;;;;;;;10.35;7.20;;;7.70;99.90;;;;;;6098980;23;20521;-83
2023/09/14 04:55:18;;;;;;;16.92;9.77;;;7.70;99.90;;;;;;6098392;23;20021;-83
2023/09/14 04:57:44;;;;;;;16.08;9.43;;;7.60;99.90;;;;;;6099165;23;20346;-83
2023/09/14 05:00:10;;;;;;;8.60;7.25;;;7.60;99.90;;;;;;6099180;23;20009;-83
2023/09/14 05:02:36;;;;;;;9.13;7.90;;;7.60;99.90;;;;;;6122477;23;20064;-83
2023/09/14 05:05:03;;;;;;;11.20;8.10;;;7.60;99.90;;;;;;6123379;23;20383;-83
2023/09/14 05:07:28;;;;;;;12.18;8.02;;;7.60;99.90;;;;;;6123464;23;20346;-83
2023/09/14 05:09:54;;;;;;;10.30;6.10;;;7.60;99.90;;;;;;6123316;23;20021;-83
2023/09/14 05:12:20;;;;;;;13.50;7.60;;;7.60;99.90;;;;;;6123081;23;20233;-83
2023/09/14 05:14:45;;;;;;;8.25;5.75;;;7.60;99.90;;;;;;6098693;23;20112;-83
2023/09/14 05:17:11;;;;;;;11.80;7.40;;;7.60;99.90;;;;;;6098442;23;20013;-84
2023/09/14 05:19:41;;;;;;;8.73;6.57;;;7.60;99.90;;;;;;6122451;23;20069;-83
2023/09/14 05:22:06;;;;;;;7.50;6.40;;;7.60;99.90;;;;;;6096923;23;20014;-83
2023/09/14 05:24:32;;;;;;;10.13;6.53;;;7.60;99.90;;;;;;6098711;23;20084;-83
2023/09/14 05:26:59;;;;;;;10.45;6.70;;;7.60;99.90;;;;;;6122948;23;20093;-83
2023/09/14 05:29:25;;;;;;;19.50;9.07;;;7.60;99.90;;;;;;6122749;23;20021;-83
2023/09/14 05:31:50;;;;;;;9.98;5.38;;;7.60;99.90;;;;;;6122410;23;20014;-83
2023/09/14 05:34:16;;;;;;;7.28;6.38;;;7.60;99.90;;;;;;6122581;23;20021;-83
2023/09/14 05:36:41;;;;;;;6.22;5.35;;;7.60;99.90;;;;;;6123222;23;20093;-83
2023/09/14 05:39:08;;;;;;;7.63;6.47;;;7.60;99.90;;;;;;6098909;23;20016;-83
2023/09/14 05:41:34;;;;;;;9.63;6.88;;;7.70;99.90;;;;;;6098101;23;20006;-83
2023/09/14 05:44:00;;;;;;;11.20;7.55;;;7.70;99.90;;;;;;6098429;23;20092;-83
2023/09/14 05:46:26;;;;;;;7.97;6.78;;;7.70;99.90;;;;;;6123093;23;20484;-83
2023/09/14 05:48:51;;;;;;;10.60;7.15;;;7.70;99.90;;;;;;6098977;23;20012;-83
2023/09/14 05:51:17;;;;;;;9.23;7.15;;;7.80;99.90;;;;;;6122312;23;20032;-83
2023/09/14 05:53:43;;;;;;;15.90;9.43;;;7.80;99.90;;;;;;6098829;23;20069;-83
2023/09/14 05:56:08;;;;;;;6.20;5.60;;;7.90;99.90;;;;;;6097740;23;20014;-83
2023/09/14 05:58:34;;;;;;;12.27;8.27;;;7.90;99.90;;;;;;6122507;23;20064;-83
2023/09/14 06:01:04;;;;;;;8.68;7.18;;;8.00;99.90;;;;;;6098008;23;20014;-83
2023/09/14 06:03:30;;;;;;;13.60;8.02;;;8.00;99.90;;;;;;6123560;23;20018;-83
2023/09/14 06:05:56;;;;;;;11.38;7.38;;;8.10;99.90;;;;;;6098347;23;20133;-83
2023/09/14 06:08:21;;;;;;;8.82;6.10;;;8.10;99.90;;;;;;6123172;23;20045;-83
2023/09/14 06:10:47;;;;;;;13.32;10.02;;;8.20;99.90;;;;;;6122430;23;20065;-83
2023/09/14 06:13:12;;;;;;;16.45;9.75;;;8.20;99.90;;;;;;6122867;23;20093;-83
2023/09/14 06:15:38;;;;;;;11.55;9.30;;;8.30;99.90;;;;;;6122976;23;20014;-83
2023/09/14 06:18:04;;;;;;;19.95;11.52;;;8.40;99.90;;;;;;6123232;23;20014;-83
2023/09/14 06:20:29;;;;;;;12.25;9.82;;;8.40;99.90;;;;;;6097730;23;20010;-83
2023/09/14 06:22:55;;;;;;;17.55;12.85;;;8.50;99.90;;;;;;6122970;23;20503;-83
2023/09/14 06:25:21;;;;;;;22.23;12.32;;;8.60;99.90;;;;;;6098546;23;20014;-83
2023/09/14 06:27:46;;;;;;;28.02;15.75;;;8.70;99.90;;;;;;6098883;23;20014;-83
2023/09/14 06:30:12;;;;;;;19.17;12.10;;;8.80;99.90;;;;;;6122603;23;20045;-83
2023/09/14 06:32:37;;;;;;;25.20;15.15;;;8.90;99.90;;;;;;6122460;23;20034;-83
2023/09/14 06:35:04;;;;;;;21.77;14.30;;;8.90;99.90;;;;;;6097627;23;20452;-84
2023/09/14 06:37:29;;;;;;;20.13;13.50;;;9.00;99.90;;;;;;6122536;23;20011;-83
2023/09/14 06:39:56;;;;;;;20.85;13.82;;;9.10;99.90;;;;;;6098017;23;20104;-83
2023/09/14 06:42:22;;;;;;;21.70;13.63;;;9.20;99.90;;;;;;6122149;23;20020;-83
2023/09/14 06:44:47;;;;;;;27.80;16.55;;;9.30;99.90;;;;;;6098384;23;20046;-82
2023/09/14 06:47:13;;;;;;;32.90;18.80;;;9.40;99.90;;;;;;6122622;23;20107;-83
2023/09/14 06:49:38;;;;;;;32.40;18.98;;;9.50;99.90;;;;;;6123959;23;20013;-82
2023/09/14 06:52:04;;;;;;;29.17;18.42;;;9.60;99.90;;;;;;6123625;23;20049;-82
2023/09/14 06:54:30;;;;;;;21.67;17.05;;;9.70;99.90;;;;;;6124030;23;20438;-82
2023/09/14 06:56:55;;;;;;;23.23;17.52;;;9.70;99.90;;;;;;6099565;23;20021;-83
2023/09/14 06:59:21;;;;;;;27.10;19.20;;;9.80;99.90;;;;;;6124674;23;20085;-83
2023/09/14 07:01:46;;;;;;;30.10;19.35;;;9.90;99.90;;;;;;6099921;23;20385;-83
2023/09/14 07:04:12;;;;;;;34.95;21.05;;;10.00;99.90;;;;;;6123612;23;20017;-84
2023/09/14 07:06:38;;;;;;;26.63;19.33;;;10.10;99.90;;;;;;6124093;23;20498;-83
2023/09/14 07:09:06;;;;;;;36.97;23.52;;;10.30;99.90;;;;;;6124755;23;20032;-83
2023/09/14 07:11:32;;;;;;;35.05;22.48;;;10.40;99.90;;;;;;6099534;23;20033;-84
2023/09/14 07:13:58;;;;;;;46.53;27.45;;;10.50;99.90;;;;;;6124440;23;20025;-84
2023/09/14 07:16:23;;;;;;;25.88;18.88;;;10.60;99.90;;;;;;6099103;23;20014;-83
2023/09/14 07:18:49;;;;;;;33.17;20.73;;;10.70;99.90;;;;;;6124403;23;20012;-83
2023/09/14 07:21:14;;;;;;;18.58;12.75;;;10.80;99.90;;;;;;6123218;23;20010;-83
2023/09/14 07:23:41;;;;;;;21.45;15.75;;;10.90;99.90;;;;;;6123440;23;20021;-83
2023/09/14 07:26:07;;;;;;;22.88;16.92;;;11.10;99.90;;;;;;6098558;23;20093;-83
2023/09/14 07:28:33;;;;;;;34.63;19.42;;;11.10;99.90;;;;;;6124015;23;20018;-84
2023/09/14 07:31:03;;;;;;;26.60;17.55;;;11.20;99.90;;;;;;6123664;23;20017;-83
2023/09/14 07:33:29;;;;;;;23.92;15.95;;;11.30;99.90;;;;;;6097368;23;20014;-84
2023/09/14 07:35:55;;;;;;;21.02;16.83;;;11.40;99.90;;;;;;6122797;23;20088;-84
2023/09/14 07:38:21;;;;;;;18.00;13.32;;;11.50;99.90;;;;;;6099647;23;20101;-84
2023/09/14 07:40:48;;;;;;;20.20;13.82;;;11.50;99.90;;;;;;6099793;23;20013;-84
2023/09/14 07:43:14;;;;;;;20.40;16.08;;;11.60;99.90;;;;;;6099725;23;20018;-84
2023/09/14 07:45:40;;;;;;;14.90;10.88;;;11.70;99.90;;;;;;6124037;23;20068;-84
2023/09/14 07:48:07;;;;;;;21.05;13.10;;;11.80;99.90;;;;;;6124239;23;20060;-84
2023/09/14 07:50:38;;;;;;;13.77;8.75;;;11.90;99.90;;;;;;6123934;23;20036;-84
2023/09/14 07:53:05;;;;;;;12.55;8.32;;;12.00;99.90;;;;;;6099706;23;20389;-84
2023/09/14 07:55:31;;;;;;;16.77;10.95;;;12.00;99.90;;;;;;6099461;23;20013;-84
2023/09/14 07:57:57;;;;;;;7.97;4.95;;;12.10;99.90;;;;;;6124186;23;20446;-84
2023/09/14 08:00:22;;;;;;;15.55;7.25;;;12.20;99.90;;;;;;6124474;23;20065;-84
2023/09/14 08:02:48;;;;;;;16.67;8.77;;;12.30;99.90;;;;;;6123856;23;20089;-85
2023/09/14 08:05:13;;;;;;;13.30;8.32;;;12.30;99.90;;;;;;6099327;23;20057;-85
2023/09/14 08:07:39;;;;;;;15.18;9.48;;;12.40;99.90;;;;;;6123979;23;20017;-85
2023/09/14 08:10:05;;;;;;;13.93;6.47;;;12.50;99.90;;;;;;6123990;23;20017;-85
2023/09/14 08:12:31;;;;;;;12.32;7.28;;;12.50;99.90;;;;;;6123930;23;20017;-84
2023/09/14 08:14:56;;;;;;;17.00;9.88;;;12.60;99.90;;;;;;6123606;23;20010;-85
2023/09/14 08:17:22;;;;;;;14.25;8.35;;;12.70;99.90;;;;;;6123989;23;20457;-84
2023/09/14 08:19:48;;;;;;;13.63;7.10;;;12.80;99.90;;;;;;6099532;23;20014;-84
2023/09/14 08:22:14;;;;;;;13.20;9.23;;;12.90;99.90;;;;;;6099423;23;20017;-85
2023/09/14 08:24:40;;;;;;;13.95;9.43;;;13.00;99.90;;;;;;6099208;23;20106;-84
2023/09/14 08:27:06;;;;;;;15.52;11.45;;;13.10;99.90;;;;;;6123738;23;20027;-84
2023/09/14 08:29:31;;;;;;;14.82;8.43;;;13.20;99.90;;;;;;6123899;23;20089;-84
2023/09/14 08:31:57;;;;;;;10.15;7.35;;;13.30;99.90;;;;;;6099261;23;20053;-85
2023/09/14 08:34:22;;;;;;;10.73;6.53;;;13.40;99.90;;;;;;6123524;23;20025;-85
2023/09/14 08:36:48;;;;;;;13.75;8.38;;;13.50;99.90;;;;;;6099095;23;20006;-84
2023/09/14 08:39:14;;;;;;;8.93;5.15;;;13.70;99.90;;;;;;6099279;23;20078;-85
2023/09/14 08:41:43;;;;;;;13.98;5.82;;;14.00;99.90;;;;;;6123722;23;20017;-84
2023/09/14 08:44:09;;;;;;;8.30;4.47;;;14.60;99.90;;;;;;6123824;23;20013;-84
2023/09/14 08:46:35;;;;;;;7.82;4.93;;;15.10;99.90;;;;;;6098943;23;20056;-85
2023/09/14 08:49:02;;;;;;;9.48;4.25;;;15.60;99.90;;;;;;6123652;23;20065;-85
2023/09/14 08:51:34;;;;;;;8.25;4.82;;;16.10;99.90;;;;;;6099179;23;20016;-85
2023/09/14 08:54:00;;;;;;;9.65;4.47;;;16.40;99.90;;;;;;6099244;23;20417;-85
2023/09/14 08:56:27;;;;;;;8.70;4.25;;;16.70;99.90;;;;;;6123308;23;20049;-85
2023/09/14 08:58:54;;;;;;;9.23;3.95;;;16.90;99.90;;;;;;6123511;23;20010;-85
2023/09/14 09:01:20;;;;;;;7.35;3.40;;;17.00;99.90;;;;;;6123482;23;20354;-85
2023/09/14 09:03:46;;;;;;;6.93;3.42;;;17.10;99.90;;;;;;6123680;23;20028;-85
2023/09/14 09:06:11;;;;;;;9.63;3.80;;;17.10;99.90;;;;;;6098745;23;20088;-85
2023/09/14 09:08:37;;;;;;;7.40;3.05;;;17.30;99.90;;;;;;6123422;23;20076;-85
2023/09/14 09:11:04;;;;;;;7.82;3.05;;;17.60;99.90;;;;;;6123533;23;20336;-85
2023/09/14 09:13:34;;;;;;;6.90;3.17;;;18.00;99.90;;;;;;6098827;23;20056;-85
2023/09/14 09:16:00;;;;;;;8.13;3.38;;;18.50;99.90;;;;;;6123215;23;20018;-85
2023/09/14 09:18:26;;;;;;;7.85;2.55;;;19.10;99.90;;;;;;6123426;23;20014;-85
2023/09/14 09:20:52;;;;;;;5.07;2.33;;;19.50;99.90;;;;;;6123384;23;20006;-85
2023/09/14 09:23:20;;;;;;;5.53;2.38;;;19.90;99.90;;;;;;6123332;23;20018;-85
2023/09/14 09:25:47;;;;;;;8.10;2.47;;;20.30;99.90;;;;;;6123155;23;20474;-83
2023/09/14 09:28:14;;;;;;;5.78;2.33;;;20.50;99.90;;;;;;6098984;23;20014;-83
2023/09/14 09:30:39;;;;;;;7.07;2.33;;;20.70;99.90;;;;;;6123359;23;20029;-83
2023/09/14 09:33:05;;;;;;;6.53;2.30;;;20.60;99.90;;;;;;6122841;23;20022;-82
2023/09/14 09:35:34;;;;;;;6.88;2.30;;;20.40;99.90;;;;;;6122990;23;20010;-82
2023/09/14 09:38:08;;;;;;;6.20;2.30;;;20.30;99.90;;;;;;6123308;23;20010;-82
2023/09/14 09:40:34;;;;;;;7.95;2.58;;;20.30;99.90;;;;;;6099257;23;20458;-82
2023/09/14 09:43:04;;;;;;;5.80;2.13;;;20.40;99.90;;;;;;6123125;23;20089;-82
2023/09/14 09:45:30;;;;;;;5.70;2.28;;;20.50;99.90;;;;;;6098718;23;20014;-82
2023/09/14 09:47:56;;;;;;;6.60;2.60;;;20.50;99.90;;;;;;6099006;23;20017;-82
2023/09/14 09:50:22;;;;;;;6.13;2.22;;;20.50;99.90;;;;;;6098828;23;20017;-82
2023/09/14 09:52:48;;;;;;;7.55;2.22;;;20.40;99.90;;;;;;6098565;23;20021;-82
2023/09/14 09:55:22;;;;;;;10.70;2.75;;;20.30;99.90;;;;;;6098565;23;20018;-82
2023/09/14 09:57:50;;;;;;;7.18;2.10;;;20.30;99.90;;;;;;6098911;23;20010;-83
2023/09/14 10:00:19;;;;;;;7.57;2.50;;;20.30;99.90;;;;;;6098734;23;20020;-82
2023/09/14 10:02:47;;;;;;;5.63;2.00;;;20.10;99.90;;;;;;6123023;23;20018;-83
2023/09/14 10:05:12;;;;;;;6.90;2.70;;;20.00;99.90;;;;;;6098684;23;20092;-82
2023/09/14 10:07:40;;;;;;;7.88;2.10;;;19.90;99.90;;;;;;6123086;23;20398;-82
2023/09/14 10:10:07;;;;;;;7.03;2.45;;;20.00;99.90;;;;;;6123074;23;20285;-82
2023/09/14 10:12:38;;;;;;;5.38;2.67;;;20.20;99.90;;;;;;6098692;23;20010;-82
2023/09/14 10:15:05;;;;;;;7.63;2.30;;;20.40;99.90;;;;;;6122984;23;20117;-82
2023/09/14 10:17:31;;;;;;;6.20;2.30;;;20.60;99.90;;;;;;6098725;23;20006;-82
2023/09/14 10:20:01;;;;;;;5.72;2.60;;;20.70;99.90;;;;;;6123185;23;20010;-82
2023/09/14 10:22:28;;;;;;;7.30;2.40;;;20.90;99.90;;;;;;6124301;23;20017;-83
2023/09/14 10:24:55;;;;;;;7.03;2.35;;;20.90;99.90;;;;;;6124570;23;20014;-81
2023/09/14 10:27:21;;;;;;;6.82;2.00;;;21.10;99.90;;;;;;6124883;23;20017;-81
2023/09/14 10:29:49;;;;;;;7.72;2.35;;;21.20;99.90;;;;;;6125008;23;20037;-82
2023/09/14 10:32:18;;;;;;;8.50;2.60;;;21.30;99.90;;;;;;6124831;23;20046;-82
2023/09/14 10:37:20;;;;;;;5.78;1.90;;;21.10;99.90;;;;;;6191390;23;20306;-81
2023/09/14 10:45:49;;;;;;;6.93;2.30;;;21.10;99.90;;;;;;6215047;23;20020;-82
2023/09/14 10:52:03;;;;;;;8.15;2.53;;;21.40;99.90;;;;;;6220600;23;20019;-81
2023/09/14 10:55:00;;;;;;;6.63;2.55;;;21.50;99.90;;;;;;6172272;23;20087;-83
2023/09/14 11:11:05;;;;;;;7.22;2.50;;;22.40;99.90;;;;;;6189171;23;20032;-83
2023/09/14 11:21:35;;;;;;;6.22;2.53;;;22.80;99.90;;;;;;6036519;23;20019;-82
2023/09/14 11:56:38;;;;;;;6.05;2.75;;;20.40;99.90;;;;;;6058040;23;20355;-82
2023/09/14 12:01:17;;;;;;;;;;;;;;;;;;;;;
2023/09/14 12:16:16;;;;;;;6.60;2.70;;;20.60;99.90;;;;;;6167995;23;20032;-84
2023/09/14 12:19:35;;;;;;;6.65;2.70;;;21.80;99.90;;;;;;6129276;23;20048;-84
2023/09/14 12:29:49;;;;;;;8.20;2.95;;;22.40;99.90;;;;;;6124877;23;20557;-84
2023/09/14 12:37:39;;;;;;;;;;;;;;;;;;;;;
2023/09/14 12:48:39;;;;;;;6.30;2.67;;;21.70;99.90;;;;;;6049340;23;20481;-84
2023/09/14 12:52:17;;;;;;;;;;;;;;;;;;;;;
2023/09/14 12:55:30;;;;;;;5.22;2.67;;;21.40;99.90;;;;;;5985749;23;20084;-82
2023/09/14 12:57:57;;;;;;;5.63;2.70;;;21.10;99.90;;;;;;6081073;23;20017;-81
2023/09/14 13:00:24;;;;;;;6.75;2.90;;;20.90;99.90;;;;;;6130364;23;20014;-82
2023/09/14 13:02:51;;;;;;;7.30;2.70;;;20.60;99.90;;;;;;6129427;23;20063;-81
2023/09/14 13:05:21;;;;;;;7.40;2.60;;;20.60;99.90;;;;;;6128849;23;20017;-81
2023/09/14 13:07:47;;;;;;;7.20;2.58;;;20.60;99.90;;;;;;6100249;23;20394;-82
2023/09/14 13:10:21;;;;;;;6.30;2.95;;;21.00;99.90;;;;;;6101009;23;20014;-81
2023/09/14 13:13:10;;;;;;;7.75;3.03;;;21.60;99.90;;;;;;6101218;23;20476;-81
2023/09/14 13:15:37;;;;;;;6.63;2.72;;;22.30;99.90;;;;;;6101090;23;20033;-82
2023/09/14 13:18:05;;;;;;;6.35;2.88;;;22.90;99.90;;;;;;6075815;23;20010;-84
2023/09/14 13:20:35;;;;;;;5.60;2.60;;;23.30;99.90;;;;;;6099395;23;20469;-83
2023/09/14 13:23:02;;;;;;;7.65;2.97;;;23.50;91.80;;;;;;6100860;23;20018;-83
2023/09/14 13:25:28;;;;;;;6.00;2.65;;;23.50;98.90;;;;;;6100660;23;20041;-83
2023/09/14 13:27:55;;;;;;;4.95;2.33;;;23.00;98.70;;;;;;6075964;23;20331;-83
2023/09/14 13:30:22;;;;;;;6.25;2.53;;;22.50;97.90;;;;;;6100200;23;20466;-81
2023/09/14 13:32:48;;;;;;;7.53;2.85;;;22.40;87.90;;;;;;6075869;23;20349;-79
2023/09/14 13:35:14;;;;;;;4.95;2.60;;;22.20;99.90;;;;;;6075115;23;20016;-80
2023/09/14 13:37:41;;;;;;;6.25;3.03;;;22.20;99.90;;;;;;6076107;23;20006;-82
2023/09/14 13:42:57;;;;;;;6.45;2.92;;;22.20;99.90;;;;;;6101584;23;20100;-82
2023/09/14 13:45:23;;;;;;;6.40;2.92;;;22.20;99.90;;;;;;6097769;23;20013;-80
2023/09/14 13:47:51;;;;;;;5.95;2.78;;;22.10;99.90;;;;;;6074188;23;20014;-79
2023/09/14 13:50:18;;;;;;;6.40;2.70;;;21.90;99.90;;;;;;6099435;23;20014;-81
2023/09/14 13:52:43;;;;;;;6.30;3.15;;;22.00;99.90;;;;;;6099108;23;20022;-78
2023/09/14 13:55:10;;;;;;;6.40;2.88;;;22.10;99.90;;;;;;6098496;23;20010;-80
2023/09/14 13:57:36;;;;;;;8.23;3.38;;;22.10;99.90;;;;;;6100820;23;20021;-81
2023/09/14 14:00:10;;;;;;;5.40;2.55;;;22.20;99.90;;;;;;6101406;23;20442;-81
2023/09/14 14:02:50;;;;;;;5.18;2.53;;;22.20;99.90;;;;;;6077324;23;20069;-81
2023/09/14 14:05:17;;;;;;;4.65;2.70;;;22.20;99.30;;;;;;6101136;23;20009;-80
2023/09/14 14:07:42;;;;;;;7.10;2.67;;;22.00;99.90;;;;;;6076915;23;20024;-81
2023/09/14 14:10:09;;;;;;;5.32;2.60;;;21.80;99.90;;;;;;6100036;23;20018;-81
2023/09/14 14:12:36;;;;;;;7.05;2.78;;;21.70;99.90;;;;;;6100786;23;20018;-81
2023/09/14 14:15:02;;;;;;;6.88;3.38;;;21.60;99.90;;;;;;6100358;23;20517;-79
2023/09/14 14:17:28;;;;;;;6.07;3.03;;;21.40;98.80;;;;;;6100174;23;20447;-81
2023/09/14 14:19:54;;;;;;;6.78;3.13;;;21.40;99.90;;;;;;6076558;23;20016;-81
2023/09/14 14:22:20;;;;;;;6.63;2.92;;;21.20;99.90;;;;;;6101321;23;20018;-80
2023/09/14 14:24:46;;;;;;;6.00;3.22;;;21.00;99.90;;;;;;6100448;23;20014;-79
2023/09/14 14:27:15;;;;;;;6.93;3.30;;;20.70;99.90;;;;;;6100349;23;20068;-82
2023/09/14 14:29:41;;;;;;;6.43;3.35;;;20.50;99.90;;;;;;6101000;23;20402;-81
2023/09/14 14:32:07;;;;;;;6.88;3.45;;;20.30;99.90;;;;;;6100869;23;20010;-81
2023/09/14 14:34:32;;;;;;;6.45;3.70;;;20.10;99.90;;;;;;6100470;23;20006;-82
2023/09/14 14:36:58;;;;;;;6.55;3.63;;;19.90;99.90;;;;;;6124252;23;20396;-81